Time;durP1;ratioP1;P1;durP2;ratioP2;P2;SDS_P1;SDS_P2;PMS_P1;PMS_P2;Temp;Humidity;BMP_temperature;BMP_pressure;BME280_temperature;BME280_humidity;BME280_pressure;Samples;Min_cycle;Max_cycle;Signal;HPM_P1;HPM_P2
2023/05/23 00:02:12;;;;;;;14.73;9.63;;;14.40;99.90;;;;;;5042358;28;20204;-65
2023/05/23 00:04:39;;;;;;;11.50;8.27;;;14.40;99.90;;;;;;5047951;28;20277;-65
2023/05/23 00:07:06;;;;;;;10.60;8.35;;;14.40;99.90;;;;;;5055804;28;20850;-65
2023/05/23 00:09:33;;;;;;;13.95;8.50;;;14.40;99.90;;;;;;5043914;28;20197;-65
2023/05/23 00:11:59;;;;;;;13.82;8.25;;;14.50;99.90;;;;;;5053863;28;20204;-65
2023/05/23 00:14:32;;;;;;;13.93;8.10;;;14.50;99.90;;;;;;5019861;28;20236;-65
2023/05/23 00:16:59;;;;;;;11.27;7.72;;;14.50;99.90;;;;;;5040612;28;20463;-65
2023/05/23 00:19:26;;;;;;;11.48;7.78;;;14.50;99.90;;;;;;5053715;28;20236;-65
2023/05/23 00:21:57;;;;;;;8.88;7.57;;;14.50;99.90;;;;;;5044283;28;20204;-65
2023/05/23 00:24:24;;;;;;;8.35;7.15;;;14.50;99.90;;;;;;5061541;28;20200;-65
2023/05/23 00:26:51;;;;;;;11.18;7.80;;;14.60;99.90;;;;;;5040908;28;20653;-65
2023/05/23 00:29:18;;;;;;;12.73;6.68;;;14.60;99.90;;;;;;5006751;28;21748;-65
2023/05/23 00:31:47;;;;;;;8.98;7.10;;;14.60;99.90;;;;;;5047511;28;20212;-65
2023/05/23 00:34:14;;;;;;;10.57;7.82;;;14.60;99.90;;;;;;5058574;28;20628;-66
2023/05/23 00:36:43;;;;;;;10.18;7.30;;;14.60;99.90;;;;;;5043974;28;20222;-66
2023/05/23 00:39:17;;;;;;;11.93;7.57;;;14.60;99.90;;;;;;5059191;28;20244;-65
2023/05/23 00:41:44;;;;;;;7.72;6.40;;;14.60;99.90;;;;;;5034298;28;20289;-65
2023/05/23 00:44:11;;;;;;;7.82;6.85;;;14.60;99.90;;;;;;5042124;28;20223;-65
2023/05/23 00:46:38;;;;;;;8.30;7.05;;;14.60;99.90;;;;;;5022947;28;20612;-65
2023/05/23 00:49:07;;;;;;;9.48;7.60;;;14.60;99.90;;;;;;5046810;28;20636;-65
2023/05/23 00:51:35;;;;;;;8.75;7.07;;;14.60;99.90;;;;;;5045997;28;21321;-65
2023/05/23 00:54:03;;;;;;;8.77;6.85;;;14.60;99.90;;;;;;5052527;28;20230;-65
2023/05/23 00:56:32;;;;;;;9.45;6.50;;;14.60;99.90;;;;;;5041304;28;20204;-65
2023/05/23 00:59:00;;;;;;;10.85;7.13;;;14.60;99.90;;;;;;5044533;28;20208;-66
2023/05/23 01:01:27;;;;;;;8.13;6.60;;;14.70;99.90;;;;;;5026677;28;20319;-65
2023/05/23 01:03:54;;;;;;;7.63;6.80;;;14.60;99.90;;;;;;5036274;28;20208;-65
2023/05/23 01:06:22;;;;;;;9.82;6.43;;;14.60;99.90;;;;;;5047684;28;20200;-65
2023/05/23 01:08:49;;;;;;;7.15;5.68;;;14.60;99.90;;;;;;5059515;28;20666;-65
2023/05/23 01:11:25;;;;;;;6.60;5.90;;;14.60;99.90;;;;;;5033840;28;20408;-65
2023/05/23 01:13:58;;;;;;;9.05;7.00;;;14.60;99.90;;;;;;5048593;28;20203;-65
2023/05/23 01:16:32;;;;;;;8.25;6.55;;;14.60;99.90;;;;;;5024195;28;20204;-65
2023/05/23 01:19:10;;;;;;;9.55;7.40;;;14.60;99.90;;;;;;5044782;28;20506;-65
2023/05/23 01:21:39;;;;;;;8.10;7.28;;;14.60;99.90;;;;;;5049023;28;20369;-65
2023/05/23 01:24:22;;;;;;;12.02;7.85;;;14.60;99.90;;;;;;5045221;28;20651;-65
2023/05/23 01:27:07;;;;;;;11.32;8.23;;;14.60;99.90;;;;;;5039199;28;20216;-65
2023/05/23 01:29:39;;;;;;;11.88;7.95;;;14.60;99.90;;;;;;5043631;28;20200;-65
2023/05/23 01:32:11;;;;;;;9.93;8.10;;;14.60;99.90;;;;;;5017159;28;20205;-65
2023/05/23 01:34:39;;;;;;;10.55;7.97;;;14.60;99.90;;;;;;5043140;28;20996;-65
2023/05/23 01:37:09;;;;;;;11.35;7.78;;;14.60;99.90;;;;;;5055646;28;20192;-65
2023/05/23 01:39:36;;;;;;;12.20;8.93;;;14.60;99.90;;;;;;5052022;28;20212;-65
2023/05/23 01:42:03;;;;;;;15.10;9.82;;;14.60;99.90;;;;;;5042745;28;20211;-66
2023/05/23 01:44:32;;;;;;;15.57;10.90;;;14.50;99.90;;;;;;5042006;28;20215;-65
2023/05/23 01:47:01;;;;;;;18.85;11.30;;;14.50;99.90;;;;;;5030741;28;20308;-65
2023/05/23 01:49:29;;;;;;;17.27;11.90;;;14.50;99.90;;;;;;5031454;28;20211;-66
2023/05/23 01:51:56;;;;;;;19.92;11.93;;;14.40;99.90;;;;;;5056699;28;20542;-65
2023/05/23 01:54:23;;;;;;;22.25;13.23;;;14.50;99.90;;;;;;5044304;28;20230;-65
2023/05/23 01:56:50;;;;;;;23.58;13.60;;;14.50;99.90;;;;;;5049485;28;20208;-65
2023/05/23 01:59:17;;;;;;;21.55;14.05;;;14.50;99.90;;;;;;5039210;28;20200;-66
2023/05/23 02:01:44;;;;;;;19.70;13.88;;;14.50;99.90;;;;;;5054394;28;20227;-65
2023/05/23 02:04:14;;;;;;;21.85;14.15;;;14.50;99.90;;;;;;5024869;28;20220;-66
2023/05/23 02:06:41;;;;;;;26.60;15.23;;;14.50;99.90;;;;;;5038469;28;20548;-65
2023/05/23 02:09:08;;;;;;;27.95;14.75;;;14.50;99.90;;;;;;5044313;28;20246;-65
2023/05/23 02:11:35;;;;;;;26.98;15.13;;;14.40;99.90;;;;;;5040506;28;20207;-66
2023/05/23 02:14:02;;;;;;;30.13;17.38;;;14.50;99.90;;;;;;5033630;28;20200;-65
2023/05/23 02:16:29;;;;;;;26.33;16.30;;;14.40;99.90;;;;;;5063130;28;20192;-66
2023/05/23 02:18:56;;;;;;;31.15;16.60;;;14.40;99.90;;;;;;5023615;28;20208;-65
2023/05/23 02:21:24;;;;;;;31.85;17.90;;;14.40;99.90;;;;;;5044135;28;20648;-65
2023/05/23 02:23:51;;;;;;;29.80;16.65;;;14.40;99.90;;;;;;5036924;28;20259;-65
2023/05/23 02:26:18;;;;;;;33.45;17.52;;;14.40;99.90;;;;;;5046735;28;20696;-65
2023/05/23 02:28:44;;;;;;;30.23;17.17;;;14.40;99.90;;;;;;5033001;28;20208;-65
2023/05/23 02:31:11;;;;;;;35.38;17.45;;;14.40;99.90;;;;;;5057453;28;20188;-66
2023/05/23 02:33:38;;;;;;;33.88;18.20;;;14.40;99.90;;;;;;5029206;28;20192;-65
2023/05/23 02:36:05;;;;;;;29.65;18.00;;;14.30;99.90;;;;;;5038797;28;20313;-65
2023/05/23 02:38:33;;;;;;;35.58;18.88;;;14.30;99.90;;;;;;5058042;28;20192;-65
2023/05/23 02:41:00;;;;;;;36.03;18.02;;;14.30;99.90;;;;;;5048510;28;20421;-65
2023/05/23 02:43:27;;;;;;;32.92;17.48;;;14.30;99.90;;;;;;5043699;28;20203;-65
2023/05/23 02:45:54;;;;;;;33.95;18.75;;;14.20;99.90;;;;;;5045908;28;20214;-65
2023/05/23 02:48:21;;;;;;;31.63;16.95;;;14.20;99.90;;;;;;5060463;28;20196;-65
2023/05/23 02:50:47;;;;;;;38.50;18.92;;;14.10;99.90;;;;;;5028001;28;20409;-65
2023/05/23 02:53:15;;;;;;;36.65;18.70;;;14.10;99.90;;;;;;5047787;28;20216;-65
2023/05/23 02:55:43;;;;;;;36.58;18.25;;;14.00;99.90;;;;;;5052191;28;20196;-65
2023/05/23 02:58:09;;;;;;;37.70;18.45;;;14.00;99.90;;;;;;5053946;28;20200;-65
2023/05/23 03:00:36;;;;;;;35.97;17.90;;;14.00;99.90;;;;;;5044024;28;20229;-65
2023/05/23 03:03:03;;;;;;;28.23;17.13;;;14.00;99.90;;;;;;5059191;28;20370;-65
2023/05/23 03:05:30;;;;;;;30.20;16.25;;;14.00;99.90;;;;;;5048561;28;20200;-65
2023/05/23 03:07:57;;;;;;;35.38;17.23;;;13.90;99.90;;;;;;5023967;28;20214;-65
2023/05/23 03:10:24;;;;;;;29.50;15.10;;;13.90;99.90;;;;;;5061560;28;20977;-65
2023/05/23 03:12:52;;;;;;;23.85;16.05;;;13.90;99.90;;;;;;5033039;28;20397;-65
2023/05/23 03:15:19;;;;;;;27.63;14.82;;;13.90;99.90;;;;;;5043043;28;20204;-65
2023/05/23 03:17:45;;;;;;;30.45;16.10;;;13.90;99.90;;;;;;5051658;28;20204;-65
2023/05/23 03:20:13;;;;;;;25.58;15.00;;;13.90;99.90;;;;;;5058890;28;21058;-65
2023/05/23 03:22:42;;;;;;;30.67;16.02;;;13.90;99.90;;;;;;5009625;28;20220;-65
2023/05/23 03:25:09;;;;;;;29.27;14.30;;;13.90;99.90;;;;;;5054183;28;22373;-65
2023/05/23 03:27:36;;;;;;;26.02;14.90;;;13.90;99.90;;;;;;5048952;28;20752;-65
2023/05/23 03:30:05;;;;;;;26.15;13.30;;;13.80;99.90;;;;;;5035965;28;20193;-65
2023/05/23 03:32:32;;;;;;;38.55;17.15;;;13.90;99.90;;;;;;5051629;28;20344;-65
2023/05/23 03:34:58;;;;;;;36.35;16.02;;;13.90;99.90;;;;;;5056496;28;20200;-65
2023/05/23 03:37:25;;;;;;;31.52;15.23;;;13.90;99.90;;;;;;5015613;28;20400;-65
2023/05/23 03:39:52;;;;;;;31.02;16.45;;;13.80;99.90;;;;;;5053144;28;20236;-66
2023/05/23 03:42:19;;;;;;;30.08;14.90;;;13.70;99.90;;;;;;5036042;28;20925;-65
2023/05/23 03:44:45;;;;;;;25.33;14.90;;;13.70;99.90;;;;;;5040864;28;20694;-66
2023/05/23 03:47:13;;;;;;;27.05;14.38;;;13.70;99.90;;;;;;5029422;28;20441;-65
2023/05/23 03:49:40;;;;;;;25.05;13.50;;;13.70;99.90;;;;;;5051720;28;20193;-65
2023/05/23 03:52:07;;;;;;;23.58;12.70;;;13.70;99.90;;;;;;5003559;28;20421;-65
2023/05/23 03:54:34;;;;;;;26.38;13.10;;;13.60;99.90;;;;;;5038773;28;20594;-66
2023/05/23 03:57:01;;;;;;;26.20;11.98;;;13.60;99.90;;;;;;5037410;28;20211;-66
2023/05/23 03:59:28;;;;;;;22.52;10.98;;;13.60;99.90;;;;;;5043766;28;20200;-66
2023/05/23 04:01:57;;;;;;;22.33;11.43;;;13.60;99.90;;;;;;5031866;28;20238;-66
2023/05/23 04:04:25;;;;;;;21.65;10.18;;;13.60;99.90;;;;;;5061397;28;20278;-66
2023/05/23 04:06:52;;;;;;;18.42;10.98;;;13.70;99.90;;;;;;5033923;28;20203;-66
2023/05/23 04:09:19;;;;;;;19.48;10.45;;;13.60;99.90;;;;;;5021043;28;20223;-65
2023/05/23 04:11:46;;;;;;;16.30;10.60;;;13.60;99.90;;;;;;5041361;28;20224;-66
2023/05/23 04:14:13;;;;;;;17.05;11.32;;;13.70;99.90;;;;;;5040982;28;20294;-65
2023/05/23 04:16:41;;;;;;;19.83;10.00;;;13.60;99.90;;;;;;5013474;28;20994;-65
2023/05/23 04:19:08;;;;;;;18.40;9.82;;;13.60;99.90;;;;;;5045795;28;20248;-66
2023/05/23 04:21:36;;;;;;;12.80;9.48;;;13.60;99.90;;;;;;5040519;28;20907;-65
2023/05/23 04:24:03;;;;;;;16.50;9.95;;;13.50;99.90;;;;;;5015619;28;20232;-65
2023/05/23 04:26:29;;;;;;;15.65;9.50;;;13.50;99.90;;;;;;5049703;28;20255;-65
2023/05/23 04:28:58;;;;;;;16.58;9.55;;;13.50;99.90;;;;;;5018501;28;20205;-66
2023/05/23 04:31:24;;;;;;;16.08;10.68;;;13.40;99.90;;;;;;5021097;28;20224;-67
2023/05/23 04:33:51;;;;;;;15.25;10.05;;;13.40;99.90;;;;;;5020782;28;20594;-67
2023/05/23 04:36:18;;;;;;;15.63;10.98;;;13.30;99.90;;;;;;5021735;28;20869;-66
2023/05/23 04:38:47;;;;;;;22.63;12.25;;;13.40;99.90;;;;;;5035359;28;20212;-67
2023/05/23 04:41:15;;;;;;;31.05;12.60;;;13.30;99.90;;;;;;5038515;28;20363;-66
2023/05/23 04:43:42;;;;;;;20.30;12.07;;;13.30;99.90;;;;;;5034041;28;20228;-66
2023/05/23 04:46:09;;;;;;;21.20;11.57;;;13.20;99.90;;;;;;5021999;28;20819;-66
2023/05/23 04:48:36;;;;;;;19.67;11.23;;;13.20;99.90;;;;;;5037125;28;20220;-66
2023/05/23 04:51:06;;;;;;;21.30;11.77;;;13.20;99.90;;;;;;5034920;28;20234;-66
2023/05/23 04:53:34;;;;;;;19.25;10.88;;;13.20;99.90;;;;;;5049177;28;20333;-67
2023/05/23 04:56:02;;;;;;;17.25;9.07;;;13.20;99.90;;;;;;5021206;28;20227;-66
2023/05/23 04:58:28;;;;;;;17.58;10.35;;;13.10;99.90;;;;;;5032291;28;22150;-66
2023/05/23 05:00:55;;;;;;;22.55;10.52;;;13.00;99.90;;;;;;5050181;28;20816;-66
2023/05/23 05:03:23;;;;;;;19.83;10.18;;;13.00;99.90;;;;;;5012762;28;21139;-65
2023/05/23 05:05:50;;;;;;;18.10;8.90;;;12.90;99.90;;;;;;5049739;28;20207;-66
2023/05/23 05:08:18;;;;;;;19.83;8.85;;;12.90;99.90;;;;;;5044190;28;20218;-66
2023/05/23 05:10:45;;;;;;;19.08;9.50;;;12.90;99.90;;;;;;5018303;28;20223;-66
2023/05/23 05:13:13;;;;;;;18.42;8.05;;;12.90;99.90;;;;;;5042054;28;21255;-66
2023/05/23 05:15:40;;;;;;;14.25;7.93;;;12.90;99.90;;;;;;5039848;28;20227;-66
2023/05/23 05:18:07;;;;;;;16.33;7.95;;;12.90;99.90;;;;;;5030499;28;20219;-66
2023/05/23 05:20:34;;;;;;;19.08;9.38;;;12.80;99.90;;;;;;5033123;28;20607;-67
2023/05/23 05:23:00;;;;;;;15.07;7.93;;;12.80;99.90;;;;;;5039262;28;20236;-67
2023/05/23 05:25:30;;;;;;;21.15;8.23;;;12.80;99.90;;;;;;5024339;28;20708;-67
2023/05/23 05:27:57;;;;;;;13.18;7.32;;;12.70;99.90;;;;;;5056620;28;20227;-67
2023/05/23 05:30:25;;;;;;;15.02;7.28;;;12.70;99.90;;;;;;5048947;28;21094;-67
2023/05/23 05:32:52;;;;;;;16.40;6.90;;;12.60;99.90;;;;;;5037976;28;23884;-67
2023/05/23 05:35:19;;;;;;;20.40;7.40;;;12.60;99.90;;;;;;5045606;28;20208;-66
2023/05/23 05:37:46;;;;;;;15.48;7.35;;;12.60;99.90;;;;;;5048021;28;20485;-66
2023/05/23 05:40:13;;;;;;;23.35;7.20;;;12.50;99.90;;;;;;5034567;28;20216;-65
2023/05/23 05:42:40;;;;;;;17.85;6.60;;;12.60;99.90;;;;;;5058401;28;20235;-67
2023/05/23 05:45:07;;;;;;;25.27;7.13;;;12.50;99.90;;;;;;5065634;28;20203;-66
2023/05/23 05:47:37;;;;;;;18.75;5.88;;;12.50;99.90;;;;;;5051363;28;20201;-67
2023/05/23 05:50:04;;;;;;;18.15;6.65;;;12.40;99.90;;;;;;5033625;28;20204;-66
2023/05/23 05:52:33;;;;;;;16.30;5.75;;;12.40;99.90;;;;;;5053181;28;20696;-66
2023/05/23 05:55:00;;;;;;;13.25;5.82;;;12.40;99.90;;;;;;5060003;28;20228;-66
2023/05/23 05:57:27;;;;;;;13.60;5.70;;;12.40;99.90;;;;;;5029382;28;20211;-66
2023/05/23 05:59:53;;;;;;;19.83;6.03;;;12.40;99.90;;;;;;5059875;28;20204;-67
2023/05/23 06:02:20;;;;;;;14.27;5.72;;;12.40;99.90;;;;;;5047178;28;20223;-67
2023/05/23 06:04:48;;;;;;;14.75;6.35;;;12.40;99.90;;;;;;5049627;28;20642;-67
2023/05/23 06:07:15;;;;;;;18.73;6.05;;;12.40;99.90;;;;;;5030248;28;20219;-67
2023/05/23 06:09:42;;;;;;;22.52;5.72;;;12.40;99.90;;;;;;5045277;28;20204;-66
2023/05/23 06:12:09;;;;;;;15.70;5.40;;;12.40;99.90;;;;;;5015770;28;20295;-66
2023/05/23 06:14:35;;;;;;;10.00;3.80;;;12.30;99.90;;;;;;5046607;28;20504;-66
2023/05/23 06:17:03;;;;;;;13.85;4.43;;;12.40;99.90;;;;;;5057350;28;20203;-66
2023/05/23 06:19:30;;;;;;;11.05;4.18;;;12.30;99.90;;;;;;5065364;28;20219;-66
2023/05/23 06:21:58;;;;;;;13.65;4.00;;;12.40;99.90;;;;;;5043103;28;20228;-65
2023/05/23 06:24:24;;;;;;;7.57;3.47;;;12.40;99.90;;;;;;5055372;28;20204;-66
2023/05/23 06:26:51;;;;;;;10.57;3.80;;;12.40;99.90;;;;;;5035564;28;21578;-66
2023/05/23 06:29:18;;;;;;;13.10;4.15;;;12.40;99.90;;;;;;5053771;28;20223;-66
2023/05/23 06:31:45;;;;;;;14.93;3.47;;;12.30;99.90;;;;;;5054830;28;20246;-66
2023/05/23 06:34:11;;;;;;;7.63;3.55;;;12.40;99.90;;;;;;5065226;28;20216;-66
2023/05/23 06:36:38;;;;;;;11.48;3.72;;;12.30;99.90;;;;;;5051209;28;20741;-66
2023/05/23 06:39:08;;;;;;;13.25;3.95;;;12.30;99.90;;;;;;5061315;28;20204;-65
2023/05/23 06:41:35;;;;;;;10.52;2.80;;;12.20;99.90;;;;;;5021791;28;21154;-66
2023/05/23 06:44:02;;;;;;;13.82;3.45;;;12.20;99.90;;;;;;5054863;28;20203;-66
2023/05/23 06:46:29;;;;;;;15.15;3.35;;;12.10;99.90;;;;;;5064465;28;20223;-65
2023/05/23 06:48:56;;;;;;;7.13;3.65;;;12.10;99.90;;;;;;5057722;28;20541;-65
2023/05/23 06:51:23;;;;;;;10.50;2.95;;;12.20;99.90;;;;;;5062055;28;20673;-66
2023/05/23 06:53:50;;;;;;;8.48;3.03;;;12.20;99.90;;;;;;5048898;28;20197;-66
2023/05/23 06:56:18;;;;;;;10.77;4.05;;;12.20;99.90;;;;;;5056727;28;20188;-66
2023/05/23 06:58:44;;;;;;;12.45;4.40;;;12.10;99.90;;;;;;5033546;28;20724;-66
2023/05/23 07:01:11;;;;;;;11.38;3.80;;;12.10;99.90;;;;;;5055669;28;20200;-66
2023/05/23 07:03:40;;;;;;;13.23;3.85;;;12.00;99.90;;;;;;5051519;28;20328;-65
2023/05/23 07:06:07;;;;;;;9.35;3.20;;;12.00;99.90;;;;;;5069514;28;20304;-65
2023/05/23 07:08:34;;;;;;;11.23;4.10;;;11.90;99.90;;;;;;5034360;28;20491;-65
2023/05/23 07:11:01;;;;;;;10.77;4.13;;;11.90;99.90;;;;;;5054951;28;20220;-66
2023/05/23 07:13:29;;;;;;;11.43;3.47;;;11.90;99.90;;;;;;5038325;28;20197;-67
2023/05/23 07:15:56;;;;;;;14.55;3.83;;;11.80;99.90;;;;;;5052933;28;20204;-66
2023/05/23 07:18:23;;;;;;;7.85;3.80;;;11.80;99.90;;;;;;5063399;28;20669;-66
2023/05/23 07:20:50;;;;;;;13.20;3.97;;;11.90;99.90;;;;;;5059385;28;20200;-66
2023/05/23 07:23:17;;;;;;;13.68;4.03;;;11.70;99.90;;;;;;5053558;28;20228;-65
2023/05/23 07:25:45;;;;;;;6.85;2.97;;;11.70;99.90;;;;;;5044996;28;20347;-65
2023/05/23 07:28:12;;;;;;;8.45;3.20;;;11.60;99.90;;;;;;5025788;28;20554;-65
2023/05/23 07:30:41;;;;;;;8.27;3.25;;;11.70;99.90;;;;;;5023756;28;20205;-65
2023/05/23 07:33:08;;;;;;;7.50;2.90;;;11.70;99.90;;;;;;5034410;28;20220;-64
2023/05/23 07:35:35;;;;;;;9.93;3.40;;;11.60;99.90;;;;;;5054126;28;20216;-65
2023/05/23 07:38:03;;;;;;;9.10;3.33;;;11.50;99.90;;;;;;5045522;28;20192;-67
2023/05/23 07:40:30;;;;;;;13.30;3.47;;;11.50;99.90;;;;;;5054444;28;20204;-66
2023/05/23 07:42:58;;;;;;;14.88;4.18;;;11.50;99.90;;;;;;5057436;28;20224;-66
2023/05/23 07:45:25;;;;;;;15.50;3.55;;;11.40;99.90;;;;;;5032755;28;20243;-66
2023/05/23 07:47:53;;;;;;;13.02;3.40;;;11.40;99.90;;;;;;5041495;28;20678;-65
2023/05/23 07:50:20;;;;;;;13.98;3.92;;;11.40;99.90;;;;;;5051248;28;20401;-65
2023/05/23 07:52:47;;;;;;;11.90;4.47;;;11.40;99.90;;;;;;5064226;28;20192;-65
2023/05/23 07:55:14;;;;;;;8.45;3.10;;;11.40;99.90;;;;;;5040320;28;20663;-65
2023/05/23 07:57:41;;;;;;;13.68;4.22;;;11.50;99.90;;;;;;5050546;28;20277;-65
2023/05/23 08:00:09;;;;;;;11.75;3.45;;;11.40;99.90;;;;;;5025909;28;21032;-65
2023/05/23 08:02:36;;;;;;;14.32;3.83;;;11.40;99.90;;;;;;5040434;28;21303;-65
2023/05/23 08:05:05;;;;;;;8.05;3.47;;;11.50;99.90;;;;;;5048393;28;20582;-66
2023/05/23 08:07:32;;;;;;;13.23;3.22;;;11.40;99.90;;;;;;5064457;28;20665;-66
2023/05/23 08:09:59;;;;;;;11.15;3.72;;;11.40;99.90;;;;;;5036777;28;20200;-66
2023/05/23 08:12:26;;;;;;;16.23;3.17;;;11.40;99.90;;;;;;5048155;28;20201;-65
2023/05/23 08:14:52;;;;;;;15.32;3.28;;;11.40;99.90;;;;;;5012216;28;20208;-66
2023/05/23 08:17:19;;;;;;;10.13;3.22;;;11.40;99.90;;;;;;5036467;28;21020;-66
2023/05/23 08:19:46;;;;;;;11.20;3.20;;;11.40;99.90;;;;;;5054947;28;20222;-65
2023/05/23 08:22:14;;;;;;;11.95;3.42;;;11.40;99.90;;;;;;5046846;28;20228;-65
2023/05/23 08:24:41;;;;;;;17.00;4.15;;;11.40;99.90;;;;;;5046736;28;20204;-65
2023/05/23 08:27:08;;;;;;;9.40;3.05;;;11.40;99.90;;;;;;5041051;28;20648;-65
2023/05/23 08:29:36;;;;;;;14.75;3.55;;;11.40;99.90;;;;;;5067241;28;20208;-66
2023/05/23 08:32:02;;;;;;;9.30;3.10;;;11.40;99.90;;;;;;5016178;28;20223;-66
2023/05/23 08:34:30;;;;;;;14.65;3.53;;;11.40;99.90;;;;;;5054266;28;20202;-65
2023/05/23 08:36:57;;;;;;;13.32;3.50;;;11.40;99.90;;;;;;5046020;28;20211;-66
2023/05/23 08:39:25;;;;;;;8.60;3.30;;;11.40;99.90;;;;;;5044106;28;20457;-66
2023/05/23 08:41:51;;;;;;;21.15;3.72;;;11.40;99.90;;;;;;5054146;28;20697;-65
2023/05/23 08:44:18;;;;;;;16.38;4.00;;;11.40;99.90;;;;;;5045007;28;21059;-65
2023/05/23 08:46:48;;;;;;;13.35;3.03;;;11.40;99.90;;;;;;5025830;28;24379;-65
2023/05/23 08:49:17;;;;;;;10.88;3.70;;;11.40;99.90;;;;;;5043138;28;20213;-65
2023/05/23 08:51:45;;;;;;;10.32;3.22;;;11.50;99.90;;;;;;5044428;28;20245;-65
2023/05/23 08:54:12;;;;;;;10.27;3.30;;;11.50;99.90;;;;;;5041757;28;20832;-66
2023/05/23 08:56:41;;;;;;;12.20;3.15;;;11.50;99.90;;;;;;5051421;28;20244;-65
2023/05/23 08:59:09;;;;;;;10.15;2.97;;;11.50;99.90;;;;;;5047840;28;20729;-65
2023/05/23 09:01:38;;;;;;;8.73;3.10;;;11.40;99.90;;;;;;5028140;28;20212;-65
2023/05/23 09:04:06;;;;;;;14.77;3.78;;;11.40;99.90;;;;;;5038771;28;20227;-65
2023/05/23 09:06:33;;;;;;;5.07;2.70;;;11.50;99.90;;;;;;5052168;28;20219;-65
2023/05/23 09:09:00;;;;;;;10.38;3.13;;;11.50;99.90;;;;;;5067886;28;20197;-65
2023/05/23 09:11:27;;;;;;;12.30;2.63;;;11.50;99.90;;;;;;5053471;28;20196;-65
2023/05/23 09:13:56;;;;;;;8.57;2.92;;;11.50;99.90;;;;;;5046444;28;20300;-65
2023/05/23 09:16:23;;;;;;;18.20;4.20;;;11.50;99.90;;;;;;5061389;28;20215;-65
2023/05/23 09:18:50;;;;;;;7.35;2.72;;;11.40;99.90;;;;;;5029987;28;20234;-65
2023/05/23 09:21:16;;;;;;;6.10;2.55;;;11.50;99.90;;;;;;5033068;28;20750;-64
2023/05/23 09:23:43;;;;;;;17.85;3.95;;;11.50;99.90;;;;;;5061112;28;20239;-65
2023/05/23 09:26:12;;;;;;;8.07;3.05;;;11.50;99.90;;;;;;5041819;28;20205;-65
2023/05/23 09:28:40;;;;;;;11.10;2.78;;;11.50;99.90;;;;;;5058415;28;20203;-64
2023/05/23 09:31:09;;;;;;;11.23;2.88;;;11.70;99.90;;;;;;5066722;28;20196;-64
2023/05/23 09:33:38;;;;;;;15.10;3.28;;;11.70;99.90;;;;;;5030613;28;20208;-64
2023/05/23 09:36:06;;;;;;;11.70;3.28;;;11.80;99.90;;;;;;5046794;28;20206;-65
2023/05/23 09:38:37;;;;;;;9.13;2.65;;;11.90;99.90;;;;;;5052949;28;20204;-64
2023/05/23 09:41:04;;;;;;;10.48;2.88;;;11.90;99.90;;;;;;5067530;28;20203;-65
2023/05/23 09:43:31;;;;;;;10.10;3.08;;;11.90;99.90;;;;;;5053178;28;20231;-65
2023/05/23 09:46:01;;;;;;;18.90;4.10;;;12.00;99.90;;;;;;5054354;28;20391;-65
2023/05/23 09:48:33;;;;;;;11.95;2.97;;;12.10;99.90;;;;;;5048626;28;20199;-65
2023/05/23 09:51:04;;;;;;;12.45;3.08;;;12.30;99.90;;;;;;5044306;28;20204;-65
2023/05/23 09:53:31;;;;;;;12.68;3.20;;;12.30;99.90;;;;;;5035720;28;20235;-65
2023/05/23 09:55:59;;;;;;;13.48;2.78;;;12.30;99.90;;;;;;5054984;28;20204;-65
2023/05/23 09:58:29;;;;;;;9.73;3.03;;;12.30;99.90;;;;;;5056298;28;20207;-65
2023/05/23 10:00:59;;;;;;;14.90;3.20;;;12.20;99.90;;;;;;5051117;28;21350;-65
2023/05/23 10:03:31;;;;;;;10.32;2.72;;;12.20;99.90;;;;;;5055891;28;20280;-64
2023/05/23 10:06:02;;;;;;;10.20;3.60;;;12.20;99.90;;;;;;5046309;28;20847;-64
2023/05/23 10:08:36;;;;;;;10.82;2.95;;;12.10;99.90;;;;;;5052936;28;20192;-64
2023/05/23 10:12:01;;;;;;;13.25;3.42;;;12.30;99.90;;;;;;5054435;28;20677;-64
2023/05/23 10:14:29;;;;;;;9.98;3.03;;;12.20;99.90;;;;;;5046138;28;20212;-64
2023/05/23 10:17:03;;;;;;;11.57;2.75;;;12.30;99.90;;;;;;5055582;28;20204;-64
2023/05/23 10:19:38;;;;;;;13.00;3.22;;;12.10;99.90;;;;;;5038073;28;20273;-64
2023/05/23 10:22:10;;;;;;;6.47;2.58;;;12.10;99.90;;;;;;5068494;28;20239;-65
2023/05/23 10:24:37;;;;;;;8.30;2.95;;;12.10;99.90;;;;;;5043053;28;21081;-64
2023/05/23 10:27:04;;;;;;;11.70;3.42;;;12.20;99.90;;;;;;5051693;28;20204;-65
2023/05/23 10:29:34;;;;;;;8.55;3.28;;;12.30;99.90;;;;;;5044399;28;20442;-64
2023/05/23 10:32:02;;;;;;;11.73;3.13;;;12.30;99.90;;;;;;5054642;28;20211;-64
2023/05/23 10:34:37;;;;;;;12.57;3.25;;;12.40;99.90;;;;;;5030702;28;20216;-64
2023/05/23 10:37:07;;;;;;;16.55;3.53;;;12.50;99.90;;;;;;5064283;28;20669;-65
2023/05/23 10:39:43;;;;;;;15.93;3.05;;;12.50;99.90;;;;;;5041331;28;20196;-64
2023/05/23 10:42:13;;;;;;;12.63;3.95;;;12.30;99.90;;;;;;5055614;28;20200;-64
2023/05/23 10:44:40;;;;;;;14.05;3.15;;;12.20;99.90;;;;;;5051912;28;20232;-64
2023/05/23 10:47:06;;;;;;;13.90;4.03;;;12.20;99.90;;;;;;5045616;28;20201;-64
2023/05/23 10:49:41;;;;;;;14.27;3.25;;;12.30;99.90;;;;;;5023672;28;20221;-64
2023/05/23 10:52:11;;;;;;;12.05;3.70;;;12.30;99.90;;;;;;5060333;28;20643;-64
2023/05/23 10:54:43;;;;;;;8.63;2.80;;;12.40;99.90;;;;;;5045193;28;21142;-64
2023/05/23 10:57:11;;;;;;;12.60;2.72;;;12.50;99.90;;;;;;5060297;28;20205;-65
2023/05/23 10:59:39;;;;;;;11.32;3.97;;;12.40;99.90;;;;;;5019086;28;20270;-64
2023/05/23 11:02:13;;;;;;;13.15;2.80;;;12.40;99.90;;;;;;5044486;28;20325;-65
2023/05/23 11:04:40;;;;;;;17.83;4.28;;;12.30;99.90;;;;;;5025127;28;21109;-63
2023/05/23 11:07:32;;;;;;;13.27;3.05;;;12.30;99.90;;;;;;5052948;28;20200;-64
2023/05/23 11:10:09;;;;;;;15.65;3.45;;;12.30;99.90;;;;;;5011272;28;21562;-64
2023/05/23 11:12:38;;;;;;;13.75;3.47;;;12.60;99.90;;;;;;5047079;28;21816;-64
2023/05/23 11:15:20;;;;;;;12.90;3.17;;;12.70;99.90;;;;;;5036738;28;20224;-64
2023/05/23 11:17:52;;;;;;;14.73;4.13;;;12.60;99.90;;;;;;5029951;28;20192;-64
2023/05/23 11:20:22;;;;;;;9.57;2.80;;;12.60;99.90;;;;;;5042831;28;20224;-64
2023/05/23 11:23:01;;;;;;;11.40;3.53;;;12.60;99.90;;;;;;5018919;28;20243;-64
2023/05/23 11:25:42;;;;;;;12.70;3.05;;;12.60;99.90;;;;;;5051001;28;20203;-64
2023/05/23 11:28:09;;;;;;;13.85;2.92;;;12.60;99.90;;;;;;5034991;28;20260;-64
2023/05/23 11:30:37;;;;;;;11.07;3.25;;;12.60;99.90;;;;;;5051094;28;20234;-64
2023/05/23 11:33:09;;;;;;;11.63;2.67;;;12.50;99.90;;;;;;5025741;28;20227;-64
2023/05/23 11:35:36;;;;;;;8.80;2.60;;;12.60;99.90;;;;;;5048512;28;20234;-64
2023/05/23 11:38:05;;;;;;;10.65;3.50;;;12.70;99.90;;;;;;5027875;28;20212;-64
2023/05/23 11:40:34;;;;;;;10.10;2.70;;;12.80;99.90;;;;;;5044835;28;20486;-65
2023/05/23 11:43:03;;;;;;;11.82;3.58;;;12.90;99.90;;;;;;5041616;28;20224;-65
2023/05/23 11:45:30;;;;;;;11.43;3.17;;;12.90;99.90;;;;;;5043850;28;20201;-64
2023/05/23 11:47:57;;;;;;;11.35;3.10;;;12.80;99.90;;;;;;5018963;28;20208;-64
2023/05/23 11:50:24;;;;;;;15.65;3.50;;;12.90;99.90;;;;;;5049321;28;20661;-64
2023/05/23 11:52:51;;;;;;;12.30;2.90;;;13.10;99.90;;;;;;5017281;28;20342;-64
2023/05/23 11:55:21;;;;;;;9.50;2.70;;;13.00;99.90;;;;;;5041979;28;20196;-64
2023/05/23 11:57:48;;;;;;;12.18;3.70;;;12.80;99.90;;;;;;5056810;28;20204;-64
2023/05/23 12:00:16;;;;;;;9.05;2.65;;;12.70;99.90;;;;;;5061192;28;20211;-64
2023/05/23 12:02:44;;;;;;;14.85;3.63;;;12.80;99.90;;;;;;5034381;28;20207;-64
2023/05/23 12:05:12;;;;;;;12.70;2.95;;;13.00;99.90;;;;;;5030414;28;20797;-64
2023/05/23 12:07:41;;;;;;;16.75;3.00;;;13.00;99.90;;;;;;5013848;28;20518;-64
2023/05/23 12:10:09;;;;;;;11.68;3.40;;;12.90;99.90;;;;;;5043009;28;20204;-64
2023/05/23 12:12:40;;;;;;;10.98;2.30;;;12.70;99.90;;;;;;5068600;28;20281;-64
2023/05/23 12:15:08;;;;;;;14.20;3.40;;;12.70;99.90;;;;;;5063017;28;20286;-64
2023/05/23 12:17:36;;;;;;;11.20;2.58;;;12.70;99.90;;;;;;5048755;28;20201;-65
2023/05/23 12:20:05;;;;;;;14.13;3.90;;;12.60;99.90;;;;;;5032495;28;20204;-64
2023/05/23 12:22:31;;;;;;;10.82;3.63;;;12.60;99.90;;;;;;5050450;28;20220;-64
2023/05/23 12:24:58;;;;;;;18.35;3.63;;;12.60;99.90;;;;;;5006519;28;20227;-64
2023/05/23 12:27:30;;;;;;;11.85;3.20;;;12.50;99.90;;;;;;5061197;28;20500;-64
2023/05/23 12:30:09;;;;;;;15.50;3.72;;;12.50;99.90;;;;;;5058976;28;20196;-64
2023/05/23 12:32:39;;;;;;;8.82;2.72;;;12.60;99.90;;;;;;5065266;28;20192;-65
2023/05/23 12:35:07;;;;;;;8.77;3.60;;;12.50;99.90;;;;;;5019866;28;20277;-64
2023/05/23 12:37:34;;;;;;;13.30;3.13;;;12.50;99.90;;;;;;5044632;28;20236;-65
2023/05/23 12:40:13;;;;;;;10.02;2.90;;;12.50;99.90;;;;;;5008618;28;20224;-64
2023/05/23 12:42:53;;;;;;;11.13;3.03;;;12.50;99.90;;;;;;5054377;28;20200;-64